CheckWX is a tool to help pilots better visualize weather data.  It is not intended as a substitute for an official pre-flight weather briefing.

07:53:42 UTC

PAED TAF
Elmendorf AFB Airport
Anchorage, Alaska, USA
TAF PAED 270300Z 2703/2809 06006KT 9999 SCT200 QNH2948INS TEMPO 2712/2715 BKN006 620062 BECMG 2715/2716 04006KT 9999 FEW006 QNH2953INS TXM05/2800Z TNM14/2712Z

Feb-27@
03:00 UTC

Feb-27 @ 03:00 UTC

Feb-27@
15:00 UTC

Feb-27 @ 15:00 UTC

TAF PAED 270300Z 2703/2809 06006KT 9999 SCT200 QNH2948INS
Wind
  • 060° at 6 KTS
Cloud Levels
  • Scattered at 20,000' AGL

Feb-27@
12:00 UTC

Feb-27 @ 12:00 UTC

Feb-27@
15:00 UTC

Feb-27 @ 15:00 UTC

TEMPO 2712/2715 BKN006 620062

Temporary

Temporary Changes expected for less than half the time period

Wind
  • 200° at 62 KTS
Cloud Levels
  • Broken at 600' AGL

Feb-27@
15:00 UTC

Feb-27 @ 15:00 UTC

Feb-28@
09:00 UTC

Feb-28 @ 09:00 UTC

BECMG 2715/2716 04006KT 9999 FEW006 QNH2953INS TXM05/2800Z TNM14/2712Z

Becoming

Becoming Conditions expected by Thu, Feb 27, 2020 @ 16:00 UTC

Wind
  • 040° at 6 KTS
Cloud Levels
  • Few at 600' AGL